CheckWX is a tool to help pilots better visualize weather data.  It is not intended as a substitute for an official pre-flight weather briefing.

14:04:56 UTC

KLGD METAR
La Grande / Union County Airport
La Grande, Oregon, USA
Current

9 mins ago

KLGD 201356Z AUTO 10SM CLR 08/03 A3010 RMK AO2 SLP327 T00780028 $
Observed
Jul-20 @ 13:56 UTC
Visibility
10 SM
Flight Rules
VFR
Cloud Levels
  • Clear skies
Temperature
C / 46°F
Dewpoint
C / 37°F
Humidity
71%
Altimeter
30.1" Hg
Pressure
1019.32 hPa
Previous

1 hour ago

KLGD 201256Z AUTO 10SM CLR 04/01 A3009 RMK AO2 SLP323 T00390011 $
Observed
Jul-20 @ 12:56 UTC
Visibility
10 SM
Flight Rules
VFR
Cloud Levels
  • Clear skies
Temperature
C / 39°F
Dewpoint
C / 34°F
Humidity
81%
Altimeter
30.09" Hg
Pressure
1018.92 hPa
Previous

2 hours ago

KLGD 201156Z AUTO 00000KT 10SM CLR 06/02 A3008 RMK AO2 SLP320 T00610022 10133 20056 53009
Observed
Jul-20 @ 11:56 UTC
Visibility
10 SM
Flight Rules
VFR
Cloud Levels
  • Clear skies
Temperature
C / 43°F
Dewpoint
C / 36°F
Humidity
76%
Altimeter
30.08" Hg
Pressure
1018.62 hPa